createdAt,value
2019-05-11T00:02:25.005Z,7.10
2019-05-11T00:04:55.831Z,7.00
2019-05-11T00:07:27.364Z,7.07
2019-05-11T00:09:58.727Z,7.90
2019-05-11T00:12:29.669Z,7.77
2019-05-11T00:15:01.686Z,6.97
2019-05-11T00:17:32.492Z,7.80
2019-05-11T00:20:03.981Z,7.30
2019-05-11T00:22:34.560Z,6.87
2019-05-11T00:25:05.906Z,7.57
2019-05-11T00:27:36.722Z,7.70
2019-05-11T00:30:07.950Z,7.53
2019-05-11T00:32:38.835Z,7.73
2019-05-11T00:35:09.822Z,7.60
2019-05-11T00:37:40.676Z,7.23
2019-05-11T00:40:14.810Z,6.67
2019-05-11T00:42:43.925Z,7.00
2019-05-11T00:45:15.107Z,7.20
2019-05-11T00:47:45.855Z,7.03
2019-05-11T00:50:16.903Z,7.30
2019-05-11T00:52:47.626Z,7.80
2019-05-11T00:55:18.727Z,7.47
2019-05-11T00:57:49.650Z,7.13
2019-05-11T01:00:21.253Z,7.47
2019-05-11T01:02:52.309Z,7.50
2019-05-11T01:05:23.297Z,7.30
2019-05-11T01:07:54.226Z,7.60
2019-05-11T01:10:40.026Z,7.43
2019-05-11T01:12:57.113Z,7.30
2019-05-11T01:15:27.850Z,7.27
2019-05-11T01:17:58.477Z,8.07
2019-05-11T01:20:29.112Z,8.27
2019-05-11T01:23:00.082Z,7.60
2019-05-11T01:25:32.137Z,7.50
2019-05-11T01:28:03.034Z,7.90
2019-05-11T01:30:34.577Z,8.37
2019-05-11T01:33:05.560Z,8.17
2019-05-11T01:35:36.164Z,7.70
2019-05-11T01:38:06.865Z,8.77
2019-05-11T01:40:37.726Z,8.30
2019-05-11T01:43:08.363Z,7.77
2019-05-11T01:45:39.092Z,7.50
2019-05-11T01:48:09.841Z,7.90
2019-05-11T01:50:40.563Z,8.23
2019-05-11T01:53:11.305Z,9.60
2019-05-11T01:55:42.185Z,10.10
2019-05-11T01:58:12.749Z,9.63
2019-05-11T02:00:43.505Z,9.97
2019-05-11T02:03:14.477Z,9.50
2019-05-11T02:05:45.183Z,10.23
2019-05-11T02:08:16.925Z,10.97
2019-05-11T02:10:47.818Z,10.67
2019-05-11T02:13:18.417Z,12.03
2019-05-11T02:15:49.191Z,12.17
2019-05-11T02:18:20.218Z,11.50
2019-05-11T02:20:50.910Z,11.77
2019-05-11T02:23:21.649Z,12.67
2019-05-11T02:25:52.305Z,12.83
2019-05-11T02:28:23.067Z,12.20
2019-05-11T02:30:53.864Z,13.07
2019-05-11T02:33:24.855Z,13.03
2019-05-11T02:35:55.324Z,12.80
2019-05-11T02:38:25.888Z,13.37
2019-05-11T02:40:56.625Z,13.57
2019-05-11T02:43:27.320Z,14.27
2019-05-11T02:45:58.080Z,13.93
2019-05-11T02:48:28.847Z,14.30
2019-05-11T02:51:00.282Z,14.33
2019-05-11T02:53:32.872Z,15.07
2019-05-11T02:56:04.748Z,14.23
2019-05-11T02:58:35.337Z,14.33
2019-05-11T03:01:06.978Z,14.20
2019-05-11T03:03:37.866Z,13.87
2019-05-11T03:06:08.630Z,14.03
2019-05-11T03:08:39.498Z,13.27
2019-05-11T03:11:10.137Z,14.20
2019-05-11T03:13:40.956Z,13.03
2019-05-11T03:16:11.831Z,13.10
2019-05-11T03:18:42.379Z,13.50
2019-05-11T03:21:13.110Z,13.97
2019-05-11T03:23:43.777Z,14.30
2019-05-11T03:26:15.142Z,14.03
2019-05-11T03:28:45.691Z,13.17
2019-05-11T03:31:16.399Z,11.23
2019-05-11T03:33:47.378Z,10.97
2019-05-11T03:36:17.977Z,10.37
2019-05-11T03:38:48.934Z,10.70
2019-05-11T03:41:19.538Z,10.20
2019-05-11T03:43:50.351Z,10.83
2019-05-11T03:46:21.757Z,10.63
2019-05-11T03:48:52.426Z,11.03
2019-05-11T03:51:22.915Z,10.87
2019-05-11T03:53:55.674Z,10.33
2019-05-11T03:56:26.214Z,10.10
2019-05-11T03:58:56.950Z,9.73
2019-05-11T04:01:27.816Z,9.63
2019-05-11T04:03:58.392Z,10.60
2019-05-11T04:06:29.117Z,9.30
2019-05-11T04:08:59.910Z,10.80
2019-05-11T04:11:30.514Z,9.77
2019-05-11T04:14:01.582Z,9.90
2019-05-11T04:16:32.459Z,9.43
2019-05-11T04:19:03.300Z,10.37
2019-05-11T04:21:33.865Z,10.30
2019-05-11T04:24:04.639Z,10.07
2019-05-11T04:26:35.457Z,10.57
2019-05-11T04:29:06.288Z,9.93
2019-05-11T04:31:37.869Z,9.27
2019-05-11T04:34:08.742Z,8.63
2019-05-11T04:36:39.325Z,9.73
2019-05-11T04:39:10.559Z,10.57
2019-05-11T04:41:41.450Z,10.17
2019-05-11T04:44:12.277Z,9.87
2019-05-11T04:46:43.208Z,10.10
2019-05-11T04:49:14.260Z,10.47
2019-05-11T04:51:45.124Z,9.50
2019-05-11T04:54:16.022Z,9.00
2019-05-11T04:56:47.035Z,8.57
2019-05-11T04:59:17.900Z,8.73
2019-05-11T05:01:48.505Z,9.03
2019-05-11T05:04:19.319Z,8.50
2019-05-11T05:06:59.608Z,9.07
2019-05-11T05:09:22.292Z,8.20
2019-05-11T05:11:52.799Z,8.80
2019-05-11T05:14:23.870Z,9.53
2019-05-11T05:16:54.415Z,8.23
2019-05-11T05:19:25.026Z,8.37
2019-05-11T05:21:55.662Z,9.60
2019-05-11T05:24:26.662Z,9.00
2019-05-11T05:26:57.228Z,9.27
2019-05-11T05:29:28.540Z,8.27
2019-05-11T05:32:01.478Z,8.00
2019-05-11T05:34:32.394Z,8.10
2019-05-11T05:37:03.011Z,8.53
2019-05-11T05:39:33.872Z,8.03
2019-05-11T05:42:04.776Z,8.20
2019-05-11T05:44:35.797Z,8.20
2019-05-11T05:47:07.281Z,7.70
2019-05-11T05:49:37.830Z,9.07
2019-05-11T05:52:08.645Z,7.97
2019-05-11T05:54:39.461Z,8.13
2019-05-11T05:57:10.004Z,7.97
2019-05-11T05:59:40.847Z,8.37
2019-05-11T06:02:11.582Z,8.23
2019-05-11T06:04:42.306Z,9.13
2019-05-11T06:07:13.363Z,8.50
2019-05-11T06:09:44.081Z,9.20
2019-05-11T06:12:14.901Z,9.37
2019-05-11T06:14:45.738Z,8.90
2019-05-11T06:17:16.386Z,9.43
2019-05-11T06:19:47.102Z,8.80
2019-05-11T06:22:17.830Z,9.17
2019-05-11T06:24:48.814Z,9.03
2019-05-11T06:27:19.441Z,8.87
2019-05-11T06:29:50.485Z,8.87
2019-05-11T06:32:21.415Z,8.77
2019-05-11T06:34:52.324Z,9.37
2019-05-11T06:37:23.242Z,9.20
2019-05-11T06:39:54.931Z,9.47
2019-05-11T06:42:25.564Z,8.87
2019-05-11T06:44:56.409Z,9.10
2019-05-11T06:47:27.064Z,8.63
2019-05-11T06:49:57.788Z,8.60
2019-05-11T06:52:28.751Z,9.43
2019-05-11T06:55:03.192Z,9.37
2019-05-11T06:57:35.215Z,9.87
2019-05-11T07:00:08.119Z,8.73
2019-05-11T07:02:39.089Z,8.07
2019-05-11T07:05:10.162Z,8.33
2019-05-11T07:07:47.610Z,8.50
2019-05-11T07:10:14.434Z,8.93
2019-05-11T07:12:45.213Z,7.77
2019-05-11T07:15:16.293Z,8.27
2019-05-11T07:17:47.361Z,8.50
2019-05-11T07:20:18.311Z,8.47
2019-05-11T07:22:49.248Z,9.00
2019-05-11T07:25:20.018Z,9.43
2019-05-11T07:27:50.870Z,9.27
2019-05-11T07:30:26.076Z,9.30
2019-05-11T07:32:58.125Z,8.63
2019-05-11T07:35:29.302Z,8.50
2019-05-11T07:38:00.161Z,8.43
2019-05-11T07:40:30.937Z,8.60
2019-05-11T07:43:01.664Z,8.63
2019-05-11T07:45:32.473Z,8.73
2019-05-11T07:48:03.335Z,9.10
2019-05-11T07:50:38.527Z,8.57
2019-05-11T07:53:08.699Z,8.90
2019-05-11T07:55:39.536Z,8.60
2019-05-11T07:58:10.334Z,8.17
2019-05-11T08:00:41.053Z,8.63
2019-05-11T08:03:12.061Z,8.33
2019-05-11T08:05:42.678Z,8.77
2019-05-11T08:08:13.402Z,9.20
2019-05-11T08:10:44.229Z,9.00
2019-05-11T08:13:17.612Z,9.27
2019-05-11T08:15:48.830Z,8.40
2019-05-11T08:18:19.614Z,8.77
2019-05-11T08:20:50.487Z,8.10
2019-05-11T08:23:21.179Z,7.83
2019-05-11T08:25:54.391Z,7.73
2019-05-11T08:28:25.710Z,7.03
2019-05-11T08:30:57.905Z,7.73
2019-05-11T08:33:28.871Z,7.03
2019-05-11T08:35:59.608Z,7.40
2019-05-11T08:38:30.306Z,7.03
2019-05-11T08:41:03.159Z,6.93
2019-05-11T08:43:34.061Z,7.07
2019-05-11T08:46:04.972Z,6.40
2019-05-11T08:48:35.714Z,7.13
2019-05-11T08:51:08.434Z,6.97
2019-05-11T08:53:38.938Z,6.43
2019-05-11T08:56:13.186Z,6.20
2019-05-11T08:58:41.869Z,5.90
2019-05-11T09:01:12.974Z,5.47
2019-05-11T09:03:43.594Z,6.00
2019-05-11T09:06:14.518Z,6.00
2019-05-11T09:08:45.502Z,6.07
2019-05-11T09:11:18.825Z,6.00
2019-05-11T09:13:49.001Z,6.27
2019-05-11T09:16:19.845Z,5.80
2019-05-11T09:18:50.475Z,5.53
2019-05-11T09:21:21.238Z,5.77
2019-05-11T09:23:51.813Z,6.50
2019-05-11T09:26:22.414Z,6.80
2019-05-11T09:28:53.734Z,5.97
2019-05-11T09:31:24.535Z,6.27
2019-05-11T09:33:55.397Z,5.60
2019-05-11T09:36:28.346Z,6.23
2019-05-11T09:38:58.594Z,6.20
2019-05-11T09:41:29.456Z,6.20
2019-05-11T09:44:00.396Z,5.53
2019-05-11T09:46:34.006Z,5.33
2019-05-11T09:49:05.220Z,5.33
2019-05-11T09:51:37.990Z,5.13
2019-05-11T09:54:08.670Z,5.23
2019-05-11T09:56:39.406Z,5.67
2019-05-11T09:59:10.449Z,5.10
2019-05-11T10:01:41.356Z,5.00
2019-05-11T10:04:12.197Z,5.27
2019-05-11T10:06:43.078Z,5.23
2019-05-11T10:09:15.138Z,5.10
2019-05-11T10:11:48.026Z,5.00
2019-05-11T10:14:19.330Z,4.70
2019-05-11T10:16:50.361Z,4.73
2019-05-11T10:19:21.239Z,4.50
2019-05-11T10:21:52.973Z,4.67
2019-05-11T10:24:23.840Z,4.03
2019-05-11T10:26:54.516Z,4.03
2019-05-11T10:29:25.845Z,3.87
2019-05-11T10:31:58.738Z,3.63
2019-05-11T10:34:30.610Z,3.30
2019-05-11T10:37:02.912Z,3.80
2019-05-11T10:39:33.755Z,3.67
2019-05-11T10:42:04.670Z,3.60
2019-05-11T10:44:35.437Z,4.00
2019-05-11T10:47:08.260Z,3.50
2019-05-11T10:49:39.867Z,3.40
2019-05-11T10:52:10.677Z,3.13
2019-05-11T10:54:41.314Z,3.33
2019-05-11T10:57:12.045Z,3.27
2019-05-11T10:59:44.126Z,3.40
2019-05-11T11:02:14.837Z,3.20
2019-05-11T11:04:45.778Z,3.23
2019-05-11T11:07:19.289Z,3.10
2019-05-11T11:09:49.167Z,3.47
2019-05-11T11:12:20.346Z,3.10
2019-05-11T11:14:51.161Z,3.20
2019-05-11T11:17:22.215Z,3.43
2019-05-11T11:19:52.965Z,3.60
2019-05-11T11:22:37.064Z,3.63
2019-05-11T11:24:58.905Z,3.30
2019-05-11T11:27:29.574Z,3.30
2019-05-11T11:30:00.086Z,3.20
2019-05-11T11:32:30.862Z,3.27
2019-05-11T11:35:01.887Z,3.30
2019-05-11T11:37:32.722Z,3.60
2019-05-11T11:40:03.631Z,3.43
2019-05-11T11:42:34.389Z,3.60
2019-05-11T11:45:07.857Z,3.53
2019-05-11T11:47:38.553Z,3.47
2019-05-11T11:50:11.204Z,3.53
2019-05-11T11:52:44.988Z,3.37
2019-05-11T11:55:14.639Z,3.40
2019-05-11T11:57:45.638Z,3.80
2019-05-11T12:00:18.371Z,3.20
2019-05-11T12:02:48.979Z,3.50
2019-05-11T12:05:19.751Z,3.20
2019-05-11T12:07:51.333Z,3.20
2019-05-11T12:10:22.131Z,3.30
2019-05-11T12:12:53.629Z,2.73
2019-05-11T12:15:24.625Z,3.30
2019-05-11T12:17:55.222Z,3.03
2019-05-11T12:20:28.474Z,3.00
2019-05-11T12:22:58.649Z,2.77
2019-05-11T12:25:29.486Z,3.30
2019-05-11T12:28:00.331Z,3.17
2019-05-11T12:30:31.153Z,3.30
2019-05-11T12:33:01.809Z,3.20
2019-05-11T12:35:32.798Z,2.93
2019-05-11T12:38:03.707Z,3.00
2019-05-11T12:40:34.511Z,3.00
2019-05-11T12:43:07.517Z,2.60
2019-05-11T12:45:38.157Z,3.23
2019-05-11T12:48:09.193Z,2.87
2019-05-11T12:50:40.049Z,2.60
2019-05-11T12:53:10.849Z,2.80
2019-05-11T12:55:41.608Z,3.23
2019-05-11T12:58:14.118Z,2.53
2019-05-11T13:00:47.759Z,2.47
2019-05-11T13:03:18.800Z,2.30
2019-05-11T13:05:49.718Z,2.80
2019-05-11T13:08:20.487Z,2.53
2019-05-11T13:10:52.467Z,2.70
2019-05-11T13:13:23.588Z,2.67
2019-05-11T13:15:58.506Z,2.40
2019-05-11T13:18:29.443Z,2.50
2019-05-11T13:21:00.558Z,2.60
2019-05-11T13:23:31.125Z,3.00
2019-05-11T13:26:08.713Z,2.77
2019-05-11T13:28:40.687Z,2.50
2019-05-11T13:31:11.541Z,2.67
2019-05-11T13:33:42.184Z,2.70
2019-05-11T13:36:13.248Z,2.80
2019-05-11T13:38:45.365Z,2.70
2019-05-11T13:41:18.130Z,2.73
2019-05-11T13:43:48.912Z,2.60
2019-05-11T13:46:20.904Z,2.50
2019-05-11T13:48:51.750Z,2.50
2019-05-11T13:51:23.086Z,2.40
2019-05-11T13:53:54.206Z,2.50
2019-05-11T13:56:25.227Z,2.60
2019-05-11T13:58:59.002Z,2.30
2019-05-11T14:01:31.763Z,2.70
2019-05-11T14:04:02.801Z,2.13
2019-05-11T14:06:33.685Z,2.77
2019-05-11T14:09:08.477Z,2.30
2019-05-11T14:11:39.378Z,2.30
2019-05-11T14:14:10.225Z,2.60
2019-05-11T14:16:42.618Z,2.40
2019-05-11T14:19:13.729Z,2.50
2019-05-11T14:21:45.022Z,2.43
2019-05-11T14:24:15.525Z,2.23
2019-05-11T14:27:08.499Z,2.23
2019-05-11T14:29:39.279Z,2.23
2019-05-11T14:32:10.361Z,2.30
2019-05-11T14:34:41.293Z,2.30
2019-05-11T14:37:12.369Z,2.53
2019-05-11T14:39:43.186Z,2.23
2019-05-11T14:42:13.798Z,2.47
2019-05-11T14:44:44.593Z,2.30
2019-05-11T14:47:17.758Z,2.33
2019-05-11T14:49:48.418Z,2.27
2019-05-11T14:52:19.029Z,2.33
2019-05-11T14:54:49.874Z,2.27
2019-05-11T14:57:20.726Z,2.63
2019-05-11T14:59:51.604Z,2.80
2019-05-11T15:02:39.961Z,2.50
2019-05-11T15:05:10.921Z,2.10
2019-05-11T15:07:41.617Z,2.30
2019-05-11T15:10:13.126Z,2.37
2019-05-11T15:12:44.166Z,2.27
2019-05-11T15:15:15.952Z,2.53
2019-05-11T15:17:49.164Z,2.63
2019-05-11T15:20:20.492Z,2.20
2019-05-11T15:22:52.766Z,2.40
2019-05-11T15:25:23.523Z,2.13
2019-05-11T15:27:55.077Z,2.30
2019-05-11T15:30:28.539Z,2.20
2019-05-11T15:32:58.677Z,2.40
2019-05-11T15:35:29.522Z,2.10
2019-05-11T15:38:00.743Z,2.00
2019-05-11T15:40:31.529Z,2.10
2019-05-11T15:43:02.604Z,2.03
2019-05-11T15:45:33.295Z,1.90
2019-05-11T15:48:08.220Z,2.00
2019-05-11T15:50:40.176Z,2.10
2019-05-11T15:53:10.981Z,2.03
2019-05-11T15:55:42.483Z,1.87
2019-05-11T15:58:13.566Z,1.90
2019-05-11T16:00:44.473Z,1.70
2019-05-11T16:03:15.572Z,1.80
2019-05-11T16:05:47.889Z,1.90
2019-05-11T16:08:19.111Z,1.90
2019-05-11T16:10:51.715Z,1.87
2019-05-11T16:13:22.556Z,1.93
2019-05-11T16:15:54.565Z,1.93
2019-05-11T16:18:25.391Z,1.90
2019-05-11T16:20:58.341Z,2.00
2019-05-11T16:23:29.426Z,2.03
2019-05-11T16:26:00.173Z,2.10
2019-05-11T16:28:31.060Z,2.10
2019-05-11T16:31:02.735Z,2.00
2019-05-11T16:33:33.668Z,1.90
2019-05-11T16:36:04.437Z,1.90
2019-05-11T16:38:37.799Z,1.77
2019-05-11T16:41:09.211Z,1.90
2019-05-11T16:43:42.702Z,1.97
2019-05-11T16:46:13.539Z,2.50
2019-05-11T16:48:44.386Z,2.30
2019-05-11T16:51:17.758Z,1.93
2019-05-11T16:53:50.184Z,2.30
2019-05-11T16:56:21.262Z,2.30
2019-05-11T16:58:54.569Z,2.10
2019-05-11T17:01:24.082Z,1.90
2019-05-11T17:03:57.853Z,2.20
2019-05-11T17:06:32.008Z,2.20
2019-05-11T17:09:01.033Z,2.40
2019-05-11T17:11:33.627Z,2.80
2019-05-11T17:14:08.064Z,2.40
2019-05-11T17:16:38.774Z,2.13
2019-05-11T17:19:09.718Z,4.47
2019-05-11T17:21:40.694Z,6.30
2019-05-11T17:24:11.430Z,5.70
2019-05-11T17:26:42.326Z,4.97
2019-05-11T17:29:13.261Z,4.70
2019-05-11T17:31:43.739Z,4.47
2019-05-11T17:34:17.548Z,4.30
2019-05-11T17:36:47.009Z,4.90
2019-05-11T17:39:18.802Z,3.40
2019-05-11T17:41:49.573Z,3.53
2019-05-11T17:44:22.220Z,2.60
2019-05-11T17:46:53.013Z,2.53
2019-05-11T17:49:23.600Z,2.30
2019-05-11T17:51:54.222Z,1.90
2019-05-11T17:54:28.333Z,2.00
2019-05-11T17:56:58.508Z,1.90
2019-05-11T17:59:29.902Z,2.00
2019-05-11T18:02:00.633Z,1.70
2019-05-11T18:04:31.386Z,2.10
2019-05-11T18:07:03.055Z,2.20
2019-05-11T18:09:38.055Z,2.70
2019-05-11T18:12:09.927Z,3.03
2019-05-11T18:14:43.632Z,2.90
2019-05-11T18:17:17.805Z,2.87
2019-05-11T18:19:48.263Z,3.43
2019-05-11T18:22:19.173Z,3.10
2019-05-11T18:24:50.075Z,3.30
2019-05-11T18:27:21.590Z,3.70
2019-05-11T18:29:52.369Z,3.20
2019-05-11T18:32:22.948Z,3.43
2019-05-11T18:34:53.637Z,3.30
2019-05-11T18:37:24.301Z,3.50
2019-05-11T18:39:55.396Z,4.23
2019-05-11T18:42:26.170Z,3.63
2019-05-11T18:44:58.062Z,3.13
2019-05-11T18:47:29.986Z,3.80
2019-05-11T18:50:00.859Z,4.13
2019-05-11T18:52:31.654Z,3.53
2019-05-11T18:55:02.299Z,3.70
2019-05-11T18:57:33.433Z,3.80
2019-05-11T19:00:04.277Z,3.40
2019-05-11T19:02:35.429Z,3.80
2019-05-11T19:05:06.798Z,3.67
2019-05-11T19:07:38.738Z,3.73
2019-05-11T19:10:10.074Z,3.97
2019-05-11T19:12:40.950Z,3.80
2019-05-11T19:15:11.531Z,3.73
2019-05-11T19:17:42.292Z,3.90
2019-05-11T19:20:13.762Z,3.77
2019-05-11T19:22:44.445Z,3.87
2019-05-11T19:25:18.244Z,3.63
2019-05-11T19:27:50.830Z,3.70
2019-05-11T19:30:21.809Z,3.50
2019-05-11T19:32:52.799Z,3.30
2019-05-11T19:35:23.706Z,3.43
2019-05-11T19:37:54.725Z,2.90
2019-05-11T19:40:25.733Z,3.53
2019-05-11T19:42:59.131Z,3.10
2019-05-11T19:45:29.756Z,3.33
2019-05-11T19:48:00.289Z,3.10
2019-05-11T19:50:30.854Z,3.50
2019-05-11T19:53:01.701Z,2.70
2019-05-11T19:55:32.753Z,2.80
2019-05-11T19:58:04.668Z,2.30
2019-05-11T20:00:37.888Z,2.30
2019-05-11T20:03:09.102Z,2.47
2019-05-11T20:05:40.088Z,2.10
2019-05-11T20:08:10.891Z,2.10
2019-05-11T20:10:41.757Z,2.07
2019-05-11T20:13:12.405Z,2.00
2019-05-11T20:15:42.877Z,2.30
2019-05-11T20:18:13.666Z,1.70
2019-05-11T20:20:44.490Z,2.00
2019-05-11T20:23:16.567Z,2.00
2019-05-11T20:25:47.839Z,1.90
2019-05-11T20:28:18.589Z,1.70
2019-05-11T20:30:49.149Z,1.87
2019-05-11T20:33:19.981Z,1.83
2019-05-11T20:35:50.797Z,1.70
2019-05-11T20:38:21.873Z,1.70
2019-05-11T20:40:53.643Z,1.63
2019-05-11T20:43:24.337Z,1.80
2019-05-11T20:45:56.279Z,1.80
2019-05-11T20:48:27.729Z,1.70
2019-05-11T20:50:58.630Z,1.63
2019-05-11T20:53:29.706Z,2.10
2019-05-11T20:56:00.523Z,1.73
2019-05-11T20:58:34.095Z,1.53
2019-05-11T21:01:05.870Z,1.70
2019-05-11T21:03:38.088Z,1.53
2019-05-11T21:06:08.832Z,1.63
2019-05-11T21:08:39.926Z,1.50
2019-05-11T21:11:10.766Z,1.90
2019-05-11T21:13:41.652Z,1.40
2019-05-11T21:16:13.406Z,1.50
2019-05-11T21:18:44.141Z,1.47
2019-05-11T21:21:15.151Z,1.40
2019-05-11T21:23:48.635Z,1.60
2019-05-11T21:26:18.949Z,1.20
2019-05-11T21:28:50.080Z,1.40
2019-05-11T21:31:20.708Z,1.57
2019-05-11T21:33:51.335Z,1.20
2019-05-11T21:36:22.165Z,1.40
2019-05-11T21:38:53.313Z,1.43
2019-05-11T21:41:24.081Z,1.30
2019-05-11T21:43:54.816Z,1.40
2019-05-11T21:46:25.298Z,1.63
2019-05-11T21:48:58.143Z,1.50
2019-05-11T21:51:28.788Z,1.40
2019-05-11T21:53:59.714Z,1.37
2019-05-11T21:56:30.551Z,1.30
2019-05-11T21:59:01.248Z,1.37
2019-05-11T22:01:33.598Z,1.37
2019-05-11T22:04:04.994Z,1.10
2019-05-11T22:06:35.950Z,1.40
2019-05-11T22:09:08.257Z,1.30
2019-05-11T22:11:38.986Z,1.30
2019-05-11T22:14:10.925Z,1.23
2019-05-11T22:16:41.809Z,1.40
2019-05-11T22:19:12.837Z,1.40
2019-05-11T22:21:43.690Z,1.20
2019-05-11T22:24:14.548Z,1.13
2019-05-11T22:26:45.125Z,1.20
2019-05-11T22:29:18.047Z,1.27
2019-05-11T22:31:48.664Z,1.30
2019-05-11T22:34:19.713Z,1.50
2019-05-11T22:36:50.610Z,1.33
2019-05-11T22:39:21.534Z,1.20
2019-05-11T22:41:52.340Z,1.20
2019-05-11T22:44:24.427Z,1.30
2019-05-11T22:46:55.145Z,1.30
2019-05-11T22:49:28.304Z,1.40
2019-05-11T22:51:59.817Z,1.10
2019-05-11T22:54:30.505Z,1.40
2019-05-11T22:57:02.205Z,1.20
2019-05-11T22:59:32.781Z,1.40
2019-05-11T23:02:03.539Z,1.13
2019-05-11T23:04:34.374Z,1.30
2019-05-11T23:07:05.011Z,1.10
2019-05-11T23:09:35.530Z,1.37
2019-05-11T23:12:08.831Z,1.20
2019-05-11T23:14:40.786Z,1.20
2019-05-11T23:17:11.662Z,1.20
2019-05-11T23:19:42.777Z,1.20
2019-05-11T23:22:15.680Z,1.10
2019-05-11T23:24:47.981Z,1.20
2019-05-11T23:27:18.682Z,1.17
2019-05-11T23:29:49.503Z,1.17
2019-05-11T23:32:20.356Z,1.00
2019-05-11T23:34:51.194Z,0.90
2019-05-11T23:37:22.033Z,1.17
2019-05-11T23:39:52.847Z,1.20
2019-05-11T23:42:23.750Z,1.10
2019-05-11T23:44:55.562Z,1.20
2019-05-11T23:47:28.687Z,1.20
2019-05-11T23:49:58.648Z,1.07
2019-05-11T23:52:29.632Z,1.30
2019-05-11T23:55:00.430Z,1.03
2019-05-11T23:57:33.289Z,1.37
